sensor_id;sensor_type;location;lat;lon;timestamp;temperature;humidity
18260;DHT22;9256;52.236;5.712;2023-08-21T00:00:53;17.70;99.90
18260;DHT22;9256;52.236;5.712;2023-08-21T00:03:20;17.80;99.90
18260;DHT22;9256;52.236;5.712;2023-08-21T00:05:46;17.80;99.90
18260;DHT22;9256;52.236;5.712;2023-08-21T00:08:13;17.80;99.90
18260;DHT22;9256;52.236;5.712;2023-08-21T00:10:40;17.80;99.90
18260;DHT22;9256;52.236;5.712;2023-08-21T00:13:07;17.90;99.90
18260;DHT22;9256;52.236;5.712;2023-08-21T00:15:38;17.90;99.90
18260;DHT22;9256;52.236;5.712;2023-08-21T00:18:05;17.90;99.90
18260;DHT22;9256;52.236;5.712;2023-08-21T00:20:32;17.90;99.90
18260;DHT22;9256;52.236;5.712;2023-08-21T00:22:59;17.90;99.90
18260;DHT22;9256;52.236;5.712;2023-08-21T00:25:26;17.90;99.90
18260;DHT22;9256;52.236;5.712;2023-08-21T00:27:53;17.90;99.90
18260;DHT22;9256;52.236;5.712;2023-08-21T00:30:22;17.90;99.90
18260;DHT22;9256;52.236;5.712;2023-08-21T00:32:51;17.90;99.90
18260;DHT22;9256;52.236;5.712;2023-08-21T00:35:18;17.90;99.90
18260;DHT22;9256;52.236;5.712;2023-08-21T00:37:45;17.90;99.90
18260;DHT22;9256;52.236;5.712;2023-08-21T00:40:12;17.90;99.90
18260;DHT22;9256;52.236;5.712;2023-08-21T00:42:39;17.80;99.90
18260;DHT22;9256;52.236;5.712;2023-08-21T00:45:06;17.80;99.90
18260;DHT22;9256;52.236;5.712;2023-08-21T00:47:34;17.70;99.90
18260;DHT22;9256;52.236;5.712;2023-08-21T00:50:04;17.70;99.90
18260;DHT22;9256;52.236;5.712;2023-08-21T00:52:33;17.60;99.90
18260;DHT22;9256;52.236;5.712;2023-08-21T00:55:00;17.50;99.90
18260;DHT22;9256;52.236;5.712;2023-08-21T00:57:28;17.50;99.90
18260;DHT22;9256;52.236;5.712;2023-08-21T00:59:55;17.60;99.90
18260;DHT22;9256;52.236;5.712;2023-08-21T01:02:22;17.60;99.90
18260;DHT22;9256;52.236;5.712;2023-08-21T01:04:49;17.70;99.90
18260;DHT22;9256;52.236;5.712;2023-08-21T01:07:17;17.70;99.90
18260;DHT22;9256;52.236;5.712;2023-08-21T01:09:49;17.70;99.90
18260;DHT22;9256;52.236;5.712;2023-08-21T01:12:23;17.70;99.90
18260;DHT22;9256;52.236;5.712;2023-08-21T01:14:57;17.70;99.90
18260;DHT22;9256;52.236;5.712;2023-08-21T01:17:25;17.70;99.90
18260;DHT22;9256;52.236;5.712;2023-08-21T01:19:53;17.80;99.90
18260;DHT22;9256;52.236;5.712;2023-08-21T01:22:25;17.80;99.90
18260;DHT22;9256;52.236;5.712;2023-08-21T01:24:54;17.80;99.90
18260;DHT22;9256;52.236;5.712;2023-08-21T01:27:21;17.60;99.90
18260;DHT22;9256;52.236;5.712;2023-08-21T01:29:48;17.60;99.90
18260;DHT22;9256;52.236;5.712;2023-08-21T01:32:20;17.70;99.90
18260;DHT22;9256;52.236;5.712;2023-08-21T01:34:49;17.70;99.90
18260;DHT22;9256;52.236;5.712;2023-08-21T01:37:18;17.70;99.90
18260;DHT22;9256;52.236;5.712;2023-08-21T01:39:45;17.60;99.90
18260;DHT22;9256;52.236;5.712;2023-08-21T01:42:13;17.50;99.90
18260;DHT22;9256;52.236;5.712;2023-08-21T01:44:40;17.50;99.90
18260;DHT22;9256;52.236;5.712;2023-08-21T01:47:07;17.60;99.90
18260;DHT22;9256;52.236;5.712;2023-08-21T01:49:34;17.60;99.90
18260;DHT22;9256;52.236;5.712;2023-08-21T01:52:01;17.60;99.90
18260;DHT22;9256;52.236;5.712;2023-08-21T01:54:28;17.70;99.90
18260;DHT22;9256;52.236;5.712;2023-08-21T01:56:55;17.60;99.90
18260;DHT22;9256;52.236;5.712;2023-08-21T01:59:24;17.60;99.90
18260;DHT22;9256;52.236;5.712;2023-08-21T02:01:51;17.50;99.90
18260;DHT22;9256;52.236;5.712;2023-08-21T02:04:19;17.60;99.90
18260;DHT22;9256;52.236;5.712;2023-08-21T02:06:46;17.70;99.90
18260;DHT22;9256;52.236;5.712;2023-08-21T02:09:13;17.70;99.90
18260;DHT22;9256;52.236;5.712;2023-08-21T02:11:40;17.60;99.90
18260;DHT22;9256;52.236;5.712;2023-08-21T02:14:07;17.60;99.90
18260;DHT22;9256;52.236;5.712;2023-08-21T02:16:35;17.60;99.90
18260;DHT22;9256;52.236;5.712;2023-08-21T02:19:02;17.50;99.90
18260;DHT22;9256;52.236;5.712;2023-08-21T02:21:29;17.60;99.90
18260;DHT22;9256;52.236;5.712;2023-08-21T02:23:56;17.60;99.90
18260;DHT22;9256;52.236;5.712;2023-08-21T02:26:22;17.60;99.90
18260;DHT22;9256;52.236;5.712;2023-08-21T02:28:49;17.60;99.90
18260;DHT22;9256;52.236;5.712;2023-08-21T02:31:16;17.50;99.90
18260;DHT22;9256;52.236;5.712;2023-08-21T02:33:45;17.50;99.90
18260;DHT22;9256;52.236;5.712;2023-08-21T02:36:11;17.50;99.90
18260;DHT22;9256;52.236;5.712;2023-08-21T02:38:38;17.40;99.90
18260;DHT22;9256;52.236;5.712;2023-08-21T02:41:05;17.40;99.90
18260;DHT22;9256;52.236;5.712;2023-08-21T02:43:33;17.40;99.90
18260;DHT22;9256;52.236;5.712;2023-08-21T02:46:00;17.30;99.90
18260;DHT22;9256;52.236;5.712;2023-08-21T02:48:27;17.30;99.90
18260;DHT22;9256;52.236;5.712;2023-08-21T02:50:55;17.30;99.90
18260;DHT22;9256;52.236;5.712;2023-08-21T02:53:22;17.30;99.90
18260;DHT22;9256;52.236;5.712;2023-08-21T02:55:49;17.20;99.90
18260;DHT22;9256;52.236;5.712;2023-08-21T02:58:16;17.30;99.90
18260;DHT22;9256;52.236;5.712;2023-08-21T03:00:43;17.40;99.90
18260;DHT22;9256;52.236;5.712;2023-08-21T03:03:10;17.30;99.90
18260;DHT22;9256;52.236;5.712;2023-08-21T03:05:37;17.40;99.90
18260;DHT22;9256;52.236;5.712;2023-08-21T03:08:06;17.40;99.90
18260;DHT22;9256;52.236;5.712;2023-08-21T03:10:33;17.30;99.90
18260;DHT22;9256;52.236;5.712;2023-08-21T03:13:00;17.20;99.90
18260;DHT22;9256;52.236;5.712;2023-08-21T03:15:26;17.20;99.90
18260;DHT22;9256;52.236;5.712;2023-08-21T03:17:54;17.20;99.90
18260;DHT22;9256;52.236;5.712;2023-08-21T03:20:21;17.10;99.90
18260;DHT22;9256;52.236;5.712;2023-08-21T03:22:48;17.20;99.90
18260;DHT22;9256;52.236;5.712;2023-08-21T03:25:17;17.30;99.90
18260;DHT22;9256;52.236;5.712;2023-08-21T03:27:43;17.30;99.90
18260;DHT22;9256;52.236;5.712;2023-08-21T03:30:15;17.30;99.90
18260;DHT22;9256;52.236;5.712;2023-08-21T03:32:42;17.30;99.90
18260;DHT22;9256;52.236;5.712;2023-08-21T03:35:09;17.20;99.90
18260;DHT22;9256;52.236;5.712;2023-08-21T03:37:36;17.20;99.90
18260;DHT22;9256;52.236;5.712;2023-08-21T03:40:03;17.00;99.90
18260;DHT22;9256;52.236;5.712;2023-08-21T03:42:31;16.90;99.90
18260;DHT22;9256;52.236;5.712;2023-08-21T03:44:58;16.90;99.90
18260;DHT22;9256;52.236;5.712;2023-08-21T03:47:25;16.90;99.90
18260;DHT22;9256;52.236;5.712;2023-08-21T03:49:52;17.00;99.90
18260;DHT22;9256;52.236;5.712;2023-08-21T03:52:19;16.90;99.90
18260;DHT22;9256;52.236;5.712;2023-08-21T03:54:46;16.80;99.90
18260;DHT22;9256;52.236;5.712;2023-08-21T03:57:13;16.80;99.90
18260;DHT22;9256;52.236;5.712;2023-08-21T03:59:41;17.00;99.90
18260;DHT22;9256;52.236;5.712;2023-08-21T04:02:08;17.00;99.90
18260;DHT22;9256;52.236;5.712;2023-08-21T04:04:35;17.00;99.90
18260;DHT22;9256;52.236;5.712;2023-08-21T04:07:02;17.00;99.90
18260;DHT22;9256;52.236;5.712;2023-08-21T04:09:29;17.00;99.90
18260;DHT22;9256;52.236;5.712;2023-08-21T04:11:56;17.00;99.90
18260;DHT22;9256;52.236;5.712;2023-08-21T04:14:22;16.80;99.90
18260;DHT22;9256;52.236;5.712;2023-08-21T04:16:51;16.80;99.90
18260;DHT22;9256;52.236;5.712;2023-08-21T04:19:18;16.80;99.90
18260;DHT22;9256;52.236;5.712;2023-08-21T04:21:45;16.80;99.90
18260;DHT22;9256;52.236;5.712;2023-08-21T04:24:11;16.80;99.90
18260;DHT22;9256;52.236;5.712;2023-08-21T04:26:38;16.50;99.90
18260;DHT22;9256;52.236;5.712;2023-08-21T04:29:05;16.60;99.90
18260;DHT22;9256;52.236;5.712;2023-08-21T04:31:32;16.70;99.90
18260;DHT22;9256;52.236;5.712;2023-08-21T04:34:00;16.70;99.90
18260;DHT22;9256;52.236;5.712;2023-08-21T04:36:27;16.70;99.90
18260;DHT22;9256;52.236;5.712;2023-08-21T04:38:54;16.70;99.90
18260;DHT22;9256;52.236;5.712;2023-08-21T04:41:21;16.70;99.90
18260;DHT22;9256;52.236;5.712;2023-08-21T04:43:48;16.70;99.90
18260;DHT22;9256;52.236;5.712;2023-08-21T04:46:15;16.80;99.90
18260;DHT22;9256;52.236;5.712;2023-08-21T04:48:42;16.80;99.90
18260;DHT22;9256;52.236;5.712;2023-08-21T04:51:10;16.80;99.90
18260;DHT22;9256;52.236;5.712;2023-08-21T04:53:37;16.80;99.90
18260;DHT22;9256;52.236;5.712;2023-08-21T04:56:04;16.80;99.90
18260;DHT22;9256;52.236;5.712;2023-08-21T04:58:31;16.90;99.90
18260;DHT22;9256;52.236;5.712;2023-08-21T05:00:58;17.00;99.90
18260;DHT22;9256;52.236;5.712;2023-08-21T05:03:26;16.70;99.90
18260;DHT22;9256;52.236;5.712;2023-08-21T05:05:53;16.60;99.90
18260;DHT22;9256;52.236;5.712;2023-08-21T05:08:22;16.60;99.90
18260;DHT22;9256;52.236;5.712;2023-08-21T05:10:54;16.50;99.90
18260;DHT22;9256;52.236;5.712;2023-08-21T05:13:21;16.50;99.90
18260;DHT22;9256;52.236;5.712;2023-08-21T05:15:51;16.50;99.90
18260;DHT22;9256;52.236;5.712;2023-08-21T05:18:18;16.60;99.90
18260;DHT22;9256;52.236;5.712;2023-08-21T05:20:46;16.80;99.90
18260;DHT22;9256;52.236;5.712;2023-08-21T05:23:13;16.90;99.90
18260;DHT22;9256;52.236;5.712;2023-08-21T05:25:42;17.00;99.90
18260;DHT22;9256;52.236;5.712;2023-08-21T05:28:09;17.00;99.90
18260;DHT22;9256;52.236;5.712;2023-08-21T05:30:36;17.10;99.90
18260;DHT22;9256;52.236;5.712;2023-08-21T05:33:03;17.20;99.90
18260;DHT22;9256;52.236;5.712;2023-08-21T05:35:33;17.20;99.90
18260;DHT22;9256;52.236;5.712;2023-08-21T05:38:01;17.20;99.90
18260;DHT22;9256;52.236;5.712;2023-08-21T05:40:28;17.20;99.90
18260;DHT22;9256;52.236;5.712;2023-08-21T05:42:57;17.20;99.90
18260;DHT22;9256;52.236;5.712;2023-08-21T05:45:24;17.20;99.90
18260;DHT22;9256;52.236;5.712;2023-08-21T05:47:51;17.40;99.90
18260;DHT22;9256;52.236;5.712;2023-08-21T05:50:18;17.60;99.90
18260;DHT22;9256;52.236;5.712;2023-08-21T05:52:45;17.70;99.90
18260;DHT22;9256;52.236;5.712;2023-08-21T05:55:12;17.70;99.90
18260;DHT22;9256;52.236;5.712;2023-08-21T05:57:39;17.70;99.90
18260;DHT22;9256;52.236;5.712;2023-08-21T06:00:08;17.80;99.90
18260;DHT22;9256;52.236;5.712;2023-08-21T06:02:35;17.90;99.90
18260;DHT22;9256;52.236;5.712;2023-08-21T06:05:03;18.10;99.90
18260;DHT22;9256;52.236;5.712;2023-08-21T06:07:32;17.90;99.90
18260;DHT22;9256;52.236;5.712;2023-08-21T06:09:59;17.80;99.90
18260;DHT22;9256;52.236;5.712;2023-08-21T06:12:25;17.90;99.90
18260;DHT22;9256;52.236;5.712;2023-08-21T06:14:52;18.00;99.90
18260;DHT22;9256;52.236;5.712;2023-08-21T06:17:21;18.10;99.90
18260;DHT22;9256;52.236;5.712;2023-08-21T06:19:48;18.10;99.90
18260;DHT22;9256;52.236;5.712;2023-08-21T06:22:15;18.20;99.90
18260;DHT22;9256;52.236;5.712;2023-08-21T06:24:42;18.20;99.90
18260;DHT22;9256;52.236;5.712;2023-08-21T06:27:09;18.20;99.90
18260;DHT22;9256;52.236;5.712;2023-08-21T06:29:36;18.20;99.90
18260;DHT22;9256;52.236;5.712;2023-08-21T06:32:03;18.30;99.90
18260;DHT22;9256;52.236;5.712;2023-08-21T06:34:31;18.40;99.90
18260;DHT22;9256;52.236;5.712;2023-08-21T06:36:58;18.60;99.90
18260;DHT22;9256;52.236;5.712;2023-08-21T06:39:25;18.80;99.90
18260;DHT22;9256;52.236;5.712;2023-08-21T06:41:52;18.90;99.90
18260;DHT22;9256;52.236;5.712;2023-08-21T06:44:20;19.10;99.90
18260;DHT22;9256;52.236;5.712;2023-08-21T06:46:47;19.20;99.90
18260;DHT22;9256;52.236;5.712;2023-08-21T06:49:14;19.30;99.90
18260;DHT22;9256;52.236;5.712;2023-08-21T06:51:42;19.40;99.90
18260;DHT22;9256;52.236;5.712;2023-08-21T06:54:09;19.60;99.90
18260;DHT22;9256;52.236;5.712;2023-08-21T06:56:36;19.70;99.90
18260;DHT22;9256;52.236;5.712;2023-08-21T06:59:03;19.70;99.90
18260;DHT22;9256;52.236;5.712;2023-08-21T07:01:30;19.80;99.90
18260;DHT22;9256;52.236;5.712;2023-08-21T07:03:58;19.90;99.90
18260;DHT22;9256;52.236;5.712;2023-08-21T07:06:27;20.00;99.90
18260;DHT22;9256;52.236;5.712;2023-08-21T07:08:56;20.00;99.90
18260;DHT22;9256;52.236;5.712;2023-08-21T07:11:23;20.20;99.90
18260;DHT22;9256;52.236;5.712;2023-08-21T07:13:49;20.60;99.90
18260;DHT22;9256;52.236;5.712;2023-08-21T07:16:16;20.70;99.90
18260;DHT22;9256;52.236;5.712;2023-08-21T07:18:43;20.90;99.90
18260;DHT22;9256;52.236;5.712;2023-08-21T07:21:10;21.10;99.90
18260;DHT22;9256;52.236;5.712;2023-08-21T07:23:37;21.40;99.90
18260;DHT22;9256;52.236;5.712;2023-08-21T07:26:05;21.50;99.90
18260;DHT22;9256;52.236;5.712;2023-08-21T07:28:33;21.80;99.90
18260;DHT22;9256;52.236;5.712;2023-08-21T07:31:01;21.50;99.90
18260;DHT22;9256;52.236;5.712;2023-08-21T07:33:28;21.40;99.90
18260;DHT22;9256;52.236;5.712;2023-08-21T07:35:58;21.60;99.90
18260;DHT22;9256;52.236;5.712;2023-08-21T07:38:25;21.70;99.90
18260;DHT22;9256;52.236;5.712;2023-08-21T07:41:02;21.80;99.90
18260;DHT22;9256;52.236;5.712;2023-08-21T07:43:31;21.90;99.90
18260;DHT22;9256;52.236;5.712;2023-08-21T07:45:58;21.90;99.90
18260;DHT22;9256;52.236;5.712;2023-08-21T07:48:25;21.70;99.90
18260;DHT22;9256;52.236;5.712;2023-08-21T07:50:52;21.90;99.90
18260;DHT22;9256;52.236;5.712;2023-08-21T07:53:19;22.10;99.90
18260;DHT22;9256;52.236;5.712;2023-08-21T07:55:46;22.20;99.90
18260;DHT22;9256;52.236;5.712;2023-08-21T07:58:13;22.20;99.90
18260;DHT22;9256;52.236;5.712;2023-08-21T08:00:41;22.20;99.90
18260;DHT22;9256;52.236;5.712;2023-08-21T08:03:09;22.40;99.90
18260;DHT22;9256;52.236;5.712;2023-08-21T08:05:37;22.50;99.90
18260;DHT22;9256;52.236;5.712;2023-08-21T08:08:04;22.80;99.90
18260;DHT22;9256;52.236;5.712;2023-08-21T08:10:31;22.60;99.90
18260;DHT22;9256;52.236;5.712;2023-08-21T08:12:58;22.80;99.90
18260;DHT22;9256;52.236;5.712;2023-08-21T08:15:25;22.90;99.90
18260;DHT22;9256;52.236;5.712;2023-08-21T08:17:54;22.70;99.90
18260;DHT22;9256;52.236;5.712;2023-08-21T08:20:21;22.60;99.90
18260;DHT22;9256;52.236;5.712;2023-08-21T08:22:48;22.80;99.90
18260;DHT22;9256;52.236;5.712;2023-08-21T08:25:15;23.10;99.90
18260;DHT22;9256;52.236;5.712;2023-08-21T08:27:43;22.90;99.90
18260;DHT22;9256;52.236;5.712;2023-08-21T08:30:10;23.00;99.90
18260;DHT22;9256;52.236;5.712;2023-08-21T08:32:39;23.00;99.90
18260;DHT22;9256;52.236;5.712;2023-08-21T08:35:08;23.10;99.90
18260;DHT22;9256;52.236;5.712;2023-08-21T08:37:36;23.20;99.90
18260;DHT22;9256;52.236;5.712;2023-08-21T08:40:03;23.30;99.90
18260;DHT22;9256;52.236;5.712;2023-08-21T08:42:31;23.30;99.90
18260;DHT22;9256;52.236;5.712;2023-08-21T08:44:59;23.40;99.90
18260;DHT22;9256;52.236;5.712;2023-08-21T08:47:30;23.50;99.90
18260;DHT22;9256;52.236;5.712;2023-08-21T08:49:59;23.60;99.90
18260;DHT22;9256;52.236;5.712;2023-08-21T08:52:28;23.60;99.90
18260;DHT22;9256;52.236;5.712;2023-08-21T08:54:56;23.50;99.90
18260;DHT22;9256;52.236;5.712;2023-08-21T08:57:24;23.80;99.90
18260;DHT22;9256;52.236;5.712;2023-08-21T08:59:51;23.80;99.90
18260;DHT22;9256;52.236;5.712;2023-08-21T09:02:18;23.80;99.90
18260;DHT22;9256;52.236;5.712;2023-08-21T09:04:45;23.70;99.90
18260;DHT22;9256;52.236;5.712;2023-08-21T09:07:12;23.40;99.90
18260;DHT22;9256;52.236;5.712;2023-08-21T09:09:44;23.10;99.90
18260;DHT22;9256;52.236;5.712;2023-08-21T09:12:13;23.20;99.90
18260;DHT22;9256;52.236;5.712;2023-08-21T09:14:40;23.10;99.90
18260;DHT22;9256;52.236;5.712;2023-08-21T09:17:08;23.20;99.90
18260;DHT22;9256;52.236;5.712;2023-08-21T09:19:35;23.40;99.90
18260;DHT22;9256;52.236;5.712;2023-08-21T09:22:08;23.90;99.90
18260;DHT22;9256;52.236;5.712;2023-08-21T09:24:36;24.20;99.90
18260;DHT22;9256;52.236;5.712;2023-08-21T09:27:10;24.20;99.90
18260;DHT22;9256;52.236;5.712;2023-08-21T09:29:39;24.30;99.90
18260;DHT22;9256;52.236;5.712;2023-08-21T09:32:07;24.40;99.90
18260;DHT22;9256;52.236;5.712;2023-08-21T09:34:34;24.50;99.90
18260;DHT22;9256;52.236;5.712;2023-08-21T09:37:05;24.60;99.90
18260;DHT22;9256;52.236;5.712;2023-08-21T09:39:33;24.60;99.90
18260;DHT22;9256;52.236;5.712;2023-08-21T09:42:01;24.60;99.90
18260;DHT22;9256;52.236;5.712;2023-08-21T09:44:35;24.70;99.90
18260;DHT22;9256;52.236;5.712;2023-08-21T09:47:02;24.50;99.90
18260;DHT22;9256;52.236;5.712;2023-08-21T09:49:29;24.80;99.90
18260;DHT22;9256;52.236;5.712;2023-08-21T09:51:58;24.70;99.90
18260;DHT22;9256;52.236;5.712;2023-08-21T09:54:26;25.10;99.90
18260;DHT22;9256;52.236;5.712;2023-08-21T09:56:53;25.30;99.90
18260;DHT22;9256;52.236;5.712;2023-08-21T09:59:21;25.10;99.90
18260;DHT22;9256;52.236;5.712;2023-08-21T10:01:51;25.40;99.90
18260;DHT22;9256;52.236;5.712;2023-08-21T10:04:21;25.30;99.90
18260;DHT22;9256;52.236;5.712;2023-08-21T10:06:51;25.60;99.90
18260;DHT22;9256;52.236;5.712;2023-08-21T10:09:21;25.70;99.90
18260;DHT22;9256;52.236;5.712;2023-08-21T10:11:50;25.80;99.90
18260;DHT22;9256;52.236;5.712;2023-08-21T10:14:20;25.60;99.90
18260;DHT22;9256;52.236;5.712;2023-08-21T10:16:47;25.60;99.90
18260;DHT22;9256;52.236;5.712;2023-08-21T10:19:17;25.70;99.90
18260;DHT22;9256;52.236;5.712;2023-08-21T10:21:46;25.60;99.90
18260;DHT22;9256;52.236;5.712;2023-08-21T10:24:26;25.70;99.90
18260;DHT22;9256;52.236;5.712;2023-08-21T10:26:54;25.80;99.90
18260;DHT22;9256;52.236;5.712;2023-08-21T10:29:24;25.80;99.90
18260;DHT22;9256;52.236;5.712;2023-08-21T10:31:59;25.70;99.90
18260;DHT22;9256;52.236;5.712;2023-08-21T10:34:33;25.90;99.90
18260;DHT22;9256;52.236;5.712;2023-08-21T10:37:05;26.10;99.90
18260;DHT22;9256;52.236;5.712;2023-08-21T10:39:33;25.50;99.90
18260;DHT22;9256;52.236;5.712;2023-08-21T10:42:04;25.40;99.90
18260;DHT22;9256;52.236;5.712;2023-08-21T10:44:47;25.60;99.90
18260;DHT22;9256;52.236;5.712;2023-08-21T10:47:19;26.10;99.90
18260;DHT22;9256;52.236;5.712;2023-08-21T10:49:49;26.10;99.90
18260;DHT22;9256;52.236;5.712;2023-08-21T10:52:21;26.00;99.90
18260;DHT22;9256;52.236;5.712;2023-08-21T10:54:49;26.00;99.90
18260;DHT22;9256;52.236;5.712;2023-08-21T10:57:17;26.10;99.90
18260;DHT22;9256;52.236;5.712;2023-08-21T10:59:52;26.00;99.90
18260;DHT22;9256;52.236;5.712;2023-08-21T11:02:19;25.50;99.90
18260;DHT22;9256;52.236;5.712;2023-08-21T11:04:48;25.20;99.90
18260;DHT22;9256;52.236;5.712;2023-08-21T11:07:15;25.60;99.90
18260;DHT22;9256;52.236;5.712;2023-08-21T11:09:42;26.20;99.90
18260;DHT22;9256;52.236;5.712;2023-08-21T11:12:11;26.50;99.90
18260;DHT22;9256;52.236;5.712;2023-08-21T11:14:39;27.00;99.90
18260;DHT22;9256;52.236;5.712;2023-08-21T11:17:07;26.80;99.90
18260;DHT22;9256;52.236;5.712;2023-08-21T11:19:34;27.00;99.90
18260;DHT22;9256;52.236;5.712;2023-08-21T11:22:04;27.10;99.90
18260;DHT22;9256;52.236;5.712;2023-08-21T11:24:42;27.60;99.90
18260;DHT22;9256;52.236;5.712;2023-08-21T11:27:10;27.90;99.90
18260;DHT22;9256;52.236;5.712;2023-08-21T11:29:38;27.60;99.90
18260;DHT22;9256;52.236;5.712;2023-08-21T11:32:13;28.00;99.90
18260;DHT22;9256;52.236;5.712;2023-08-21T11:34:41;28.10;99.90
18260;DHT22;9256;52.236;5.712;2023-08-21T11:37:11;27.90;99.90
18260;DHT22;9256;52.236;5.712;2023-08-21T11:39:47;27.70;99.90
18260;DHT22;9256;52.236;5.712;2023-08-21T11:42:15;27.70;99.90
18260;DHT22;9256;52.236;5.712;2023-08-21T11:44:43;27.90;99.90
18260;DHT22;9256;52.236;5.712;2023-08-21T11:47:11;27.80;99.90
18260;DHT22;9256;52.236;5.712;2023-08-21T11:49:39;28.10;99.90
18260;DHT22;9256;52.236;5.712;2023-08-21T11:52:08;27.80;99.90
18260;DHT22;9256;52.236;5.712;2023-08-21T11:54:37;28.10;99.90
18260;DHT22;9256;52.236;5.712;2023-08-21T11:57:07;28.10;99.90
18260;DHT22;9256;52.236;5.712;2023-08-21T11:59:34;28.50;99.90
18260;DHT22;9256;52.236;5.712;2023-08-21T12:02:09;28.20;99.90
18260;DHT22;9256;52.236;5.712;2023-08-21T12:04:36;28.30;99.90
18260;DHT22;9256;52.236;5.712;2023-08-21T12:07:03;28.40;99.90
18260;DHT22;9256;52.236;5.712;2023-08-21T12:09:31;28.20;99.90
18260;DHT22;9256;52.236;5.712;2023-08-21T12:11:59;28.70;99.90
18260;DHT22;9256;52.236;5.712;2023-08-21T12:14:28;29.10;99.90
18260;DHT22;9256;52.236;5.712;2023-08-21T12:16:55;29.30;99.90
18260;DHT22;9256;52.236;5.712;2023-08-21T12:19:22;29.40;99.90
18260;DHT22;9256;52.236;5.712;2023-08-21T12:21:50;29.10;99.90
18260;DHT22;9256;52.236;5.712;2023-08-21T12:24:17;29.20;99.90
18260;DHT22;9256;52.236;5.712;2023-08-21T12:26:44;29.10;99.90
18260;DHT22;9256;52.236;5.712;2023-08-21T12:29:12;28.80;99.90
18260;DHT22;9256;52.236;5.712;2023-08-21T12:31:39;28.30;99.90
18260;DHT22;9256;52.236;5.712;2023-08-21T12:34:06;28.80;99.90
18260;DHT22;9256;52.236;5.712;2023-08-21T12:36:34;28.60;99.90
18260;DHT22;9256;52.236;5.712;2023-08-21T12:39:02;28.90;99.90
18260;DHT22;9256;52.236;5.712;2023-08-21T12:41:29;28.50;99.90
18260;DHT22;9256;52.236;5.712;2023-08-21T12:43:56;27.80;99.90
18260;DHT22;9256;52.236;5.712;2023-08-21T12:46:24;27.40;99.90
18260;DHT22;9256;52.236;5.712;2023-08-21T12:48:53;27.50;99.90
18260;DHT22;9256;52.236;5.712;2023-08-21T12:51:20;28.30;99.90
18260;DHT22;9256;52.236;5.712;2023-08-21T12:53:47;29.00;99.90
18260;DHT22;9256;52.236;5.712;2023-08-21T12:56:14;29.50;99.90
18260;DHT22;9256;52.236;5.712;2023-08-21T12:58:41;30.20;99.90
18260;DHT22;9256;52.236;5.712;2023-08-21T13:01:07;30.70;99.90
18260;DHT22;9256;52.236;5.712;2023-08-21T13:03:36;30.90;99.90
18260;DHT22;9256;52.236;5.712;2023-08-21T13:06:03;30.30;99.90
18260;DHT22;9256;52.236;5.712;2023-08-21T13:08:30;30.70;99.90
18260;DHT22;9256;52.236;5.712;2023-08-21T13:10:57;30.30;99.90
18260;DHT22;9256;52.236;5.712;2023-08-21T13:13:24;30.00;99.90
18260;DHT22;9256;52.236;5.712;2023-08-21T13:15:51;30.60;99.90
18260;DHT22;9256;52.236;5.712;2023-08-21T13:18:20;31.20;99.90
18260;DHT22;9256;52.236;5.712;2023-08-21T13:20:48;31.50;99.90
18260;DHT22;9256;52.236;5.712;2023-08-21T13:23:15;31.70;99.90
18260;DHT22;9256;52.236;5.712;2023-08-21T13:25:42;31.90;99.90
18260;DHT22;9256;52.236;5.712;2023-08-21T13:28:09;31.70;99.90
18260;DHT22;9256;52.236;5.712;2023-08-21T13:30:37;31.80;99.90
18260;DHT22;9256;52.236;5.712;2023-08-21T13:33:04;32.50;99.90
18260;DHT22;9256;52.236;5.712;2023-08-21T13:35:32;32.40;99.90
18260;DHT22;9256;52.236;5.712;2023-08-21T13:38:00;33.20;99.90
18260;DHT22;9256;52.236;5.712;2023-08-21T13:40:28;33.70;99.90
18260;DHT22;9256;52.236;5.712;2023-08-21T13:42:56;33.30;99.90
18260;DHT22;9256;52.236;5.712;2023-08-21T13:45:23;33.30;99.90
18260;DHT22;9256;52.236;5.712;2023-08-21T13:47:50;33.60;99.90
18260;DHT22;9256;52.236;5.712;2023-08-21T13:50:18;33.50;99.90
18260;DHT22;9256;52.236;5.712;2023-08-21T13:52:46;33.80;99.90
18260;DHT22;9256;52.236;5.712;2023-08-21T13:55:15;33.70;99.90
18260;DHT22;9256;52.236;5.712;2023-08-21T13:57:42;34.30;99.90
18260;DHT22;9256;52.236;5.712;2023-08-21T14:00:11;32.60;99.90
18260;DHT22;9256;52.236;5.712;2023-08-21T14:02:39;30.80;99.90
18260;DHT22;9256;52.236;5.712;2023-08-21T14:05:07;29.50;99.90
18260;DHT22;9256;52.236;5.712;2023-08-21T14:07:35;28.90;99.90
18260;DHT22;9256;52.236;5.712;2023-08-21T14:10:03;28.10;99.90
18260;DHT22;9256;52.236;5.712;2023-08-21T14:12:32;27.60;99.90
18260;DHT22;9256;52.236;5.712;2023-08-21T14:14:59;28.60;99.90
18260;DHT22;9256;52.236;5.712;2023-08-21T14:17:27;30.40;99.90
18260;DHT22;9256;52.236;5.712;2023-08-21T14:19:57;31.50;99.90
18260;DHT22;9256;52.236;5.712;2023-08-21T14:22:24;31.20;99.90
18260;DHT22;9256;52.236;5.712;2023-08-21T14:24:51;31.00;99.90
18260;DHT22;9256;52.236;5.712;2023-08-21T14:27:18;31.10;99.90
18260;DHT22;9256;52.236;5.712;2023-08-21T14:29:46;30.50;99.90
18260;DHT22;9256;52.236;5.712;2023-08-21T14:32:13;29.70;99.90
18260;DHT22;9256;52.236;5.712;2023-08-21T14:34:40;29.30;99.90
18260;DHT22;9256;52.236;5.712;2023-08-21T14:37:07;29.10;99.90
18260;DHT22;9256;52.236;5.712;2023-08-21T14:39:34;28.90;99.90
18260;DHT22;9256;52.236;5.712;2023-08-21T14:42:01;28.30;99.90
18260;DHT22;9256;52.236;5.712;2023-08-21T14:44:28;28.10;99.90
18260;DHT22;9256;52.236;5.712;2023-08-21T14:46:56;28.30;99.90
18260;DHT22;9256;52.236;5.712;2023-08-21T14:49:23;27.90;99.90
18260;DHT22;9256;52.236;5.712;2023-08-21T14:51:51;27.80;99.90
18260;DHT22;9256;52.236;5.712;2023-08-21T14:54:18;27.70;99.90
18260;DHT22;9256;52.236;5.712;2023-08-21T14:56:45;27.70;99.90
18260;DHT22;9256;52.236;5.712;2023-08-21T14:59:13;27.60;99.90
18260;DHT22;9256;52.236;5.712;2023-08-21T15:01:40;27.40;99.90
18260;DHT22;9256;52.236;5.712;2023-08-21T15:04:09;27.10;99.90
18260;DHT22;9256;52.236;5.712;2023-08-21T15:06:37;26.70;99.90
18260;DHT22;9256;52.236;5.712;2023-08-21T15:09:05;26.40;99.90
18260;DHT22;9256;52.236;5.712;2023-08-21T15:11:33;26.70;99.90
18260;DHT22;9256;52.236;5.712;2023-08-21T15:14:01;26.90;99.90
18260;DHT22;9256;52.236;5.712;2023-08-21T15:16:29;27.20;99.90
18260;DHT22;9256;52.236;5.712;2023-08-21T15:18:56;27.10;99.90
18260;DHT22;9256;52.236;5.712;2023-08-21T15:21:25;27.30;99.90
18260;DHT22;9256;52.236;5.712;2023-08-21T15:23:52;26.90;99.90
18260;DHT22;9256;52.236;5.712;2023-08-21T15:26:20;26.80;99.90
18260;DHT22;9256;52.236;5.712;2023-08-21T15:28:47;26.80;99.90
18260;DHT22;9256;52.236;5.712;2023-08-21T15:31:14;26.80;99.90
18260;DHT22;9256;52.236;5.712;2023-08-21T15:33:41;27.10;99.90
18260;DHT22;9256;52.236;5.712;2023-08-21T15:36:08;27.40;99.90
18260;DHT22;9256;52.236;5.712;2023-08-21T15:38:36;27.30;99.90
18260;DHT22;9256;52.236;5.712;2023-08-21T15:41:03;27.00;99.90
18260;DHT22;9256;52.236;5.712;2023-08-21T15:43:30;26.80;99.90
18260;DHT22;9256;52.236;5.712;2023-08-21T15:45:57;26.60;99.90
18260;DHT22;9256;52.236;5.712;2023-08-21T15:48:24;26.50;99.90